sensor_id;sensor_type;location;lat;lon;timestamp;temperature;humidity
20057;DHT22;10189;49.546;7.906;2023-04-02T00:01:03;7.00;99.90
20057;DHT22;10189;49.546;7.906;2023-04-02T00:11:47;7.00;99.90
20057;DHT22;10189;49.546;7.906;2023-04-02T00:14:36;7.00;99.90
20057;DHT22;10189;49.546;7.906;2023-04-02T00:17:04;7.00;99.90
20057;DHT22;10189;49.546;7.906;2023-04-02T00:19:42;6.90;99.90
20057;DHT22;10189;49.546;7.906;2023-04-02T00:22:30;7.00;99.90
20057;DHT22;10189;49.546;7.906;2023-04-02T00:24:59;6.90;99.90
20057;DHT22;10189;49.546;7.906;2023-04-02T00:27:32;6.90;99.90
20057;DHT22;10189;49.546;7.906;2023-04-02T00:29:59;6.90;99.90
20057;DHT22;10189;49.546;7.906;2023-04-02T00:32:28;6.90;99.90
20057;DHT22;10189;49.546;7.906;2023-04-02T00:34:56;6.90;99.90
20057;DHT22;10189;49.546;7.906;2023-04-02T00:37:26;6.90;99.90
20057;DHT22;10189;49.546;7.906;2023-04-02T00:39:59;6.90;99.90
20057;DHT22;10189;49.546;7.906;2023-04-02T00:42:30;7.00;99.90
20057;DHT22;10189;49.546;7.906;2023-04-02T00:44:56;7.00;99.90
20057;DHT22;10189;49.546;7.906;2023-04-02T00:47:32;7.10;99.90
20057;DHT22;10189;49.546;7.906;2023-04-02T00:50:48;7.10;99.90
20057;DHT22;10189;49.546;7.906;2023-04-02T00:52:51;7.20;99.90
20057;DHT22;10189;49.546;7.906;2023-04-02T00:55:26;7.20;99.90
20057;DHT22;10189;49.546;7.906;2023-04-02T00:58:00;7.20;99.90
20057;DHT22;10189;49.546;7.906;2023-04-02T01:00:34;7.20;99.90
20057;DHT22;10189;49.546;7.906;2023-04-02T01:15:20;7.30;99.90
20057;DHT22;10189;49.546;7.906;2023-04-02T01:18:26;7.20;99.90
20057;DHT22;10189;49.546;7.906;2023-04-02T01:21:23;7.20;99.90
20057;DHT22;10189;49.546;7.906;2023-04-02T01:24:10;7.20;99.90
20057;DHT22;10189;49.546;7.906;2023-04-02T01:26:44;7.30;99.90
20057;DHT22;10189;49.546;7.906;2023-04-02T01:32:00;7.30;99.90
20057;DHT22;10189;49.546;7.906;2023-04-02T01:34:35;7.30;99.90
20057;DHT22;10189;49.546;7.906;2023-04-02T01:43:05;7.30;99.90
20057;DHT22;10189;49.546;7.906;2023-04-02T01:45:35;7.20;99.90
20057;DHT22;10189;49.546;7.906;2023-04-02T01:48:05;7.20;99.90
20057;DHT22;10189;49.546;7.906;2023-04-02T01:50:38;7.20;99.90
20057;DHT22;10189;49.546;7.906;2023-04-02T01:53:09;7.20;99.90
20057;DHT22;10189;49.546;7.906;2023-04-02T01:55:42;7.10;99.90
20057;DHT22;10189;49.546;7.906;2023-04-02T01:58:13;7.10;99.90
20057;DHT22;10189;49.546;7.906;2023-04-02T02:00:48;7.20;99.90
20057;DHT22;10189;49.546;7.906;2023-04-02T02:03:19;7.10;99.90
20057;DHT22;10189;49.546;7.906;2023-04-02T02:05:46;7.20;99.90
20057;DHT22;10189;49.546;7.906;2023-04-02T02:08:33;7.20;99.90
20057;DHT22;10189;49.546;7.906;2023-04-02T02:11:05;7.20;99.90
20057;DHT22;10189;49.546;7.906;2023-04-02T02:13:32;7.10;99.90
20057;DHT22;10189;49.546;7.906;2023-04-02T02:15:59;7.20;99.90
20057;DHT22;10189;49.546;7.906;2023-04-02T02:18:28;7.10;99.90
20057;DHT22;10189;49.546;7.906;2023-04-02T02:20:56;7.10;99.90
20057;DHT22;10189;49.546;7.906;2023-04-02T02:23:27;7.10;99.90
20057;DHT22;10189;49.546;7.906;2023-04-02T02:25:54;7.20;99.90
20057;DHT22;10189;49.546;7.906;2023-04-02T02:28:28;7.10;99.90
20057;DHT22;10189;49.546;7.906;2023-04-02T02:31:13;7.10;99.90
20057;DHT22;10189;49.546;7.906;2023-04-02T02:33:52;7.20;99.90
20057;DHT22;10189;49.546;7.906;2023-04-02T02:36:35;7.20;99.90
20057;DHT22;10189;49.546;7.906;2023-04-02T02:39:38;7.20;99.90
20057;DHT22;10189;49.546;7.906;2023-04-02T02:42:22;7.10;99.90
20057;DHT22;10189;49.546;7.906;2023-04-02T02:44:57;7.10;99.90
20057;DHT22;10189;49.546;7.906;2023-04-02T02:47:28;7.10;99.90
20057;DHT22;10189;49.546;7.906;2023-04-02T02:50:07;7.10;99.90
20057;DHT22;10189;49.546;7.906;2023-04-02T02:52:46;7.10;99.90
20057;DHT22;10189;49.546;7.906;2023-04-02T02:55:29;7.10;99.90
20057;DHT22;10189;49.546;7.906;2023-04-02T02:58:08;7.10;99.90
20057;DHT22;10189;49.546;7.906;2023-04-02T03:00:48;7.10;99.90
20057;DHT22;10189;49.546;7.906;2023-04-02T03:03:25;7.10;99.90
20057;DHT22;10189;49.546;7.906;2023-04-02T03:06:03;7.10;99.90
20057;DHT22;10189;49.546;7.906;2023-04-02T03:08:44;7.10;99.90
20057;DHT22;10189;49.546;7.906;2023-04-02T03:11:38;7.10;99.90
20057;DHT22;10189;49.546;7.906;2023-04-02T03:14:25;7.10;99.90
20057;DHT22;10189;49.546;7.906;2023-04-02T03:17:03;7.10;99.90
20057;DHT22;10189;49.546;7.906;2023-04-02T03:19:53;7.10;99.90
20057;DHT22;10189;49.546;7.906;2023-04-02T03:28:33;7.10;99.90
20057;DHT22;10189;49.546;7.906;2023-04-02T03:31:12;7.10;99.90
20057;DHT22;10189;49.546;7.906;2023-04-02T03:34:21;7.20;99.90
20057;DHT22;10189;49.546;7.906;2023-04-02T03:37:04;7.10;99.90
20057;DHT22;10189;49.546;7.906;2023-04-02T03:43:04;7.00;99.90
20057;DHT22;10189;49.546;7.906;2023-04-02T03:46:31;7.00;99.90
20057;DHT22;10189;49.546;7.906;2023-04-02T03:49:28;6.90;99.90
20057;DHT22;10189;49.546;7.906;2023-04-02T03:52:24;6.90;99.90
20057;DHT22;10189;49.546;7.906;2023-04-02T03:54:55;6.90;99.90
20057;DHT22;10189;49.546;7.906;2023-04-02T03:57:30;6.90;99.90
20057;DHT22;10189;49.546;7.906;2023-04-02T04:03:43;6.90;99.90
20057;DHT22;10189;49.546;7.906;2023-04-02T04:06:14;6.90;99.90
20057;DHT22;10189;49.546;7.906;2023-04-02T04:12:13;6.80;99.90
20057;DHT22;10189;49.546;7.906;2023-04-02T04:15:15;6.80;99.90
20057;DHT22;10189;49.546;7.906;2023-04-02T04:18:18;6.90;99.90
20057;DHT22;10189;49.546;7.906;2023-04-02T04:21:11;6.90;99.90
20057;DHT22;10189;49.546;7.906;2023-04-02T04:23:56;7.00;99.90
20057;DHT22;10189;49.546;7.906;2023-04-02T04:26:40;7.00;99.90
20057;DHT22;10189;49.546;7.906;2023-04-02T04:32:31;6.90;99.90
20057;DHT22;10189;49.546;7.906;2023-04-02T04:35:31;6.90;99.90
20057;DHT22;10189;49.546;7.906;2023-04-02T04:38:06;7.00;99.90
20057;DHT22;10189;49.546;7.906;2023-04-02T04:40:48;7.00;99.90
20057;DHT22;10189;49.546;7.906;2023-04-02T04:43:46;7.10;99.90
20057;DHT22;10189;49.546;7.906;2023-04-02T04:46:27;7.10;99.90
20057;DHT22;10189;49.546;7.906;2023-04-02T04:49:19;7.00;99.90
20057;DHT22;10189;49.546;7.906;2023-04-02T04:54:47;7.00;99.90
20057;DHT22;10189;49.546;7.906;2023-04-02T05:03:16;7.00;99.90
20057;DHT22;10189;49.546;7.906;2023-04-02T05:06:02;6.90;99.90
20057;DHT22;10189;49.546;7.906;2023-04-02T05:08:39;6.90;99.90
20057;DHT22;10189;49.546;7.906;2023-04-02T05:11:34;7.00;99.90
20057;DHT22;10189;49.546;7.906;2023-04-02T05:17:20;7.00;99.90
20057;DHT22;10189;49.546;7.906;2023-04-02T05:19:59;6.90;99.90
20057;DHT22;10189;49.546;7.906;2023-04-02T05:22:34;6.90;99.90
20057;DHT22;10189;49.546;7.906;2023-04-02T05:25:14;6.90;99.90
20057;DHT22;10189;49.546;7.906;2023-04-02T05:30:54;6.90;99.90
20057;DHT22;10189;49.546;7.906;2023-04-02T05:33:26;6.90;99.90
20057;DHT22;10189;49.546;7.906;2023-04-02T05:36:23;6.90;99.90
20057;DHT22;10189;49.546;7.906;2023-04-02T05:38:56;7.00;99.90
20057;DHT22;10189;49.546;7.906;2023-04-02T05:41:42;7.00;99.90
20057;DHT22;10189;49.546;7.906;2023-04-02T05:44:21;7.00;99.90
20057;DHT22;10189;49.546;7.906;2023-04-02T05:47:04;7.00;99.90
20057;DHT22;10189;49.546;7.906;2023-04-02T05:49:46;7.00;99.90
20057;DHT22;10189;49.546;7.906;2023-04-02T05:52:44;7.00;99.90
20057;DHT22;10189;49.546;7.906;2023-04-02T05:57:55;7.10;99.90
20057;DHT22;10189;49.546;7.906;2023-04-02T06:01:13;7.20;99.90
20057;DHT22;10189;49.546;7.906;2023-04-02T06:06:05;7.20;99.90
20057;DHT22;10189;49.546;7.906;2023-04-02T06:08:50;7.20;99.90
20057;DHT22;10189;49.546;7.906;2023-04-02T06:11:31;7.30;99.90
20057;DHT22;10189;49.546;7.906;2023-04-02T06:14:11;7.30;99.90
20057;DHT22;10189;49.546;7.906;2023-04-02T06:16:39;7.40;99.90
20057;DHT22;10189;49.546;7.906;2023-04-02T06:19:15;7.40;99.90
20057;DHT22;10189;49.546;7.906;2023-04-02T06:21:50;7.50;99.90
20057;DHT22;10189;49.546;7.906;2023-04-02T06:24:23;7.50;99.90
20057;DHT22;10189;49.546;7.906;2023-04-02T06:27:00;7.60;99.90
20057;DHT22;10189;49.546;7.906;2023-04-02T06:29:33;7.60;99.90
20057;DHT22;10189;49.546;7.906;2023-04-02T06:32:09;7.60;99.90
20057;DHT22;10189;49.546;7.906;2023-04-02T06:34:40;7.70;99.90
20057;DHT22;10189;49.546;7.906;2023-04-02T06:37:33;7.80;99.90
20057;DHT22;10189;49.546;7.906;2023-04-02T06:43:29;7.90;99.90
20057;DHT22;10189;49.546;7.906;2023-04-02T06:51:52;8.10;99.90
20057;DHT22;10189;49.546;7.906;2023-04-02T06:54:20;8.20;99.90
20057;DHT22;10189;49.546;7.906;2023-04-02T06:56:53;8.10;99.90
20057;DHT22;10189;49.546;7.906;2023-04-02T06:59:43;8.20;99.90
20057;DHT22;10189;49.546;7.906;2023-04-02T07:02:28;8.30;99.90
20057;DHT22;10189;49.546;7.906;2023-04-02T07:05:03;8.40;99.90
20057;DHT22;10189;49.546;7.906;2023-04-02T07:07:40;8.40;99.90
20057;DHT22;10189;49.546;7.906;2023-04-02T07:10:11;8.50;99.90
20057;DHT22;10189;49.546;7.906;2023-04-02T07:12:37;8.50;99.90
20057;DHT22;10189;49.546;7.906;2023-04-02T07:15:04;8.50;99.90
20057;DHT22;10189;49.546;7.906;2023-04-02T07:17:30;8.50;99.90
20057;DHT22;10189;49.546;7.906;2023-04-02T07:19:56;8.60;99.90
20057;DHT22;10189;49.546;7.906;2023-04-02T07:22:22;8.70;99.90
20057;DHT22;10189;49.546;7.906;2023-04-02T07:24:54;8.80;99.90
20057;DHT22;10189;49.546;7.906;2023-04-02T07:27:20;8.80;99.90
20057;DHT22;10189;49.546;7.906;2023-04-02T07:29:45;8.80;99.90
20057;DHT22;10189;49.546;7.906;2023-04-02T07:32:12;8.80;99.90
20057;DHT22;10189;49.546;7.906;2023-04-02T07:34:39;8.70;99.90
20057;DHT22;10189;49.546;7.906;2023-04-02T07:37:06;8.70;99.90
20057;DHT22;10189;49.546;7.906;2023-04-02T07:39:37;8.90;99.30
20057;DHT22;10189;49.546;7.906;2023-04-02T07:42:03;9.00;99.00
20057;DHT22;10189;49.546;7.906;2023-04-02T07:44:28;9.20;98.00
20057;DHT22;10189;49.546;7.906;2023-04-02T07:46:54;9.00;97.10
20057;DHT22;10189;49.546;7.906;2023-04-02T07:49:20;9.00;98.50
20057;DHT22;10189;49.546;7.906;2023-04-02T07:51:46;9.20;97.00
20057;DHT22;10189;49.546;7.906;2023-04-02T07:54:13;9.40;95.20
20057;DHT22;10189;49.546;7.906;2023-04-02T07:56:39;9.40;94.90
20057;DHT22;10189;49.546;7.906;2023-04-02T07:59:05;9.50;94.20
20057;DHT22;10189;49.546;7.906;2023-04-02T08:01:32;9.60;93.00
20057;DHT22;10189;49.546;7.906;2023-04-02T08:04:02;9.60;93.80
20057;DHT22;10189;49.546;7.906;2023-04-02T08:06:29;9.80;94.00
20057;DHT22;10189;49.546;7.906;2023-04-02T08:08:56;9.90;92.40
20057;DHT22;10189;49.546;7.906;2023-04-02T08:11:23;10.00;93.00
20057;DHT22;10189;49.546;7.906;2023-04-02T08:13:49;10.00;92.40
20057;DHT22;10189;49.546;7.906;2023-04-02T08:16:15;10.20;91.00
20057;DHT22;10189;49.546;7.906;2023-04-02T08:18:41;10.30;89.80
20057;DHT22;10189;49.546;7.906;2023-04-02T08:21:08;10.30;89.60
20057;DHT22;10189;49.546;7.906;2023-04-02T08:23:36;10.30;91.30
20057;DHT22;10189;49.546;7.906;2023-04-02T08:26:03;10.40;90.00
20057;DHT22;10189;49.546;7.906;2023-04-02T08:28:30;10.20;90.30
20057;DHT22;10189;49.546;7.906;2023-04-02T08:30:56;10.30;90.60
20057;DHT22;10189;49.546;7.906;2023-04-02T08:33:22;10.40;91.10
20057;DHT22;10189;49.546;7.906;2023-04-02T08:35:48;10.60;89.90
20057;DHT22;10189;49.546;7.906;2023-04-02T08:38:16;10.70;89.60
20057;DHT22;10189;49.546;7.906;2023-04-02T08:40:48;11.00;88.00
20057;DHT22;10189;49.546;7.906;2023-04-02T08:48:50;11.00;88.50
20057;DHT22;10189;49.546;7.906;2023-04-02T08:51:25;11.30;86.40
20057;DHT22;10189;49.546;7.906;2023-04-02T08:53:58;11.20;87.00
20057;DHT22;10189;49.546;7.906;2023-04-02T08:56:40;11.10;85.70
20057;DHT22;10189;49.546;7.906;2023-04-02T08:59:30;10.90;83.50
20057;DHT22;10189;49.546;7.906;2023-04-02T09:02:01;10.90;85.80
20057;DHT22;10189;49.546;7.906;2023-04-02T09:04:47;11.00;86.10
20057;DHT22;10189;49.546;7.906;2023-04-02T09:07:15;11.10;85.70
20057;DHT22;10189;49.546;7.906;2023-04-02T09:09:42;11.30;85.10
20057;DHT22;10189;49.546;7.906;2023-04-02T09:12:30;11.30;83.70
20057;DHT22;10189;49.546;7.906;2023-04-02T09:17:45;10.80;85.40
20057;DHT22;10189;49.546;7.906;2023-04-02T09:20:16;10.90;87.20
20057;DHT22;10189;49.546;7.906;2023-04-02T09:22:49;10.90;87.50
20057;DHT22;10189;49.546;7.906;2023-04-02T09:25:24;10.90;87.50
20057;DHT22;10189;49.546;7.906;2023-04-02T09:27:54;10.40;88.20
20057;DHT22;10189;49.546;7.906;2023-04-02T09:33:17;9.30;94.50
20057;DHT22;10189;49.546;7.906;2023-04-02T09:38:22;9.20;98.40
20057;DHT22;10189;49.546;7.906;2023-04-02T09:41:03;9.30;97.70
20057;DHT22;10189;49.546;7.906;2023-04-02T09:43:43;9.30;97.30
20057;DHT22;10189;49.546;7.906;2023-04-02T09:46:15;9.40;96.00
20057;DHT22;10189;49.546;7.906;2023-04-02T09:48:56;9.20;97.70
20057;DHT22;10189;49.546;7.906;2023-04-02T09:51:27;9.30;98.60
20057;DHT22;10189;49.546;7.906;2023-04-02T09:56:29;8.90;96.80
20057;DHT22;10189;49.546;7.906;2023-04-02T10:01:44;8.00;99.90
20057;DHT22;10189;49.546;7.906;2023-04-02T10:04:40;7.80;99.90
20057;DHT22;10189;49.546;7.906;2023-04-02T10:07:33;7.40;99.90
20057;DHT22;10189;49.546;7.906;2023-04-02T10:10:28;7.30;99.90
20057;DHT22;10189;49.546;7.906;2023-04-02T10:16:40;7.00;99.90
20057;DHT22;10189;49.546;7.906;2023-04-02T10:19:35;7.00;99.90
20057;DHT22;10189;49.546;7.906;2023-04-02T10:22:11;6.90;99.90
20057;DHT22;10189;49.546;7.906;2023-04-02T10:24:39;6.90;99.90
20057;DHT22;10189;49.546;7.906;2023-04-02T10:33:13;6.90;99.90
20057;DHT22;10189;49.546;7.906;2023-04-02T10:36:03;6.70;99.90
20057;DHT22;10189;49.546;7.906;2023-04-02T10:38:58;6.80;99.90
20057;DHT22;10189;49.546;7.906;2023-04-02T10:41:52;6.70;99.90
20057;DHT22;10189;49.546;7.906;2023-04-02T10:44:40;6.70;99.90
20057;DHT22;10189;49.546;7.906;2023-04-02T10:53:17;6.60;99.90
20057;DHT22;10189;49.546;7.906;2023-04-02T10:55:52;6.70;99.90
20057;DHT22;10189;49.546;7.906;2023-04-02T10:58:29;6.60;99.90
20057;DHT22;10189;49.546;7.906;2023-04-02T11:01:06;6.60;99.90
20057;DHT22;10189;49.546;7.906;2023-04-02T11:04:00;6.70;99.90
20057;DHT22;10189;49.546;7.906;2023-04-02T11:06:49;6.80;99.90
20057;DHT22;10189;49.546;7.906;2023-04-02T11:09:25;6.70;99.90
20057;DHT22;10189;49.546;7.906;2023-04-02T11:11:58;6.70;99.90
20057;DHT22;10189;49.546;7.906;2023-04-02T11:14:31;6.60;99.90
20057;DHT22;10189;49.546;7.906;2023-04-02T11:17:00;6.70;99.90
20057;DHT22;10189;49.546;7.906;2023-04-02T11:19:31;6.60;99.90
20057;DHT22;10189;49.546;7.906;2023-04-02T11:24:58;6.80;99.90
20057;DHT22;10189;49.546;7.906;2023-04-02T11:27:28;7.00;99.90
20057;DHT22;10189;49.546;7.906;2023-04-02T11:32:42;6.90;99.90
20057;DHT22;10189;49.546;7.906;2023-04-02T11:38:01;6.40;99.90
20057;DHT22;10189;49.546;7.906;2023-04-02T11:40:53;6.20;99.90
20057;DHT22;10189;49.546;7.906;2023-04-02T11:46:04;6.00;99.90
20057;DHT22;10189;49.546;7.906;2023-04-02T11:48:49;6.00;99.90
20057;DHT22;10189;49.546;7.906;2023-04-02T11:53:56;5.80;99.90
20057;DHT22;10189;49.546;7.906;2023-04-02T11:56:46;5.80;99.90
20057;DHT22;10189;49.546;7.906;2023-04-02T11:59:27;5.70;99.90
20057;DHT22;10189;49.546;7.906;2023-04-02T12:10:14;5.50;99.90
20057;DHT22;10189;49.546;7.906;2023-04-02T12:12:43;5.50;99.90
20057;DHT22;10189;49.546;7.906;2023-04-02T12:15:33;5.50;99.90
20057;DHT22;10189;49.546;7.906;2023-04-02T12:18:29;5.40;99.90
20057;DHT22;10189;49.546;7.906;2023-04-02T12:20:56;5.30;99.90
20057;DHT22;10189;49.546;7.906;2023-04-02T12:23:27;5.20;99.90
20057;DHT22;10189;49.546;7.906;2023-04-02T12:28:26;5.30;99.90
20057;DHT22;10189;49.546;7.906;2023-04-02T12:31:04;5.30;99.90
20057;DHT22;10189;49.546;7.906;2023-04-02T12:33:35;5.30;99.90
20057;DHT22;10189;49.546;7.906;2023-04-02T12:36:05;5.30;99.90
20057;DHT22;10189;49.546;7.906;2023-04-02T12:41:26;5.40;99.90
20057;DHT22;10189;49.546;7.906;2023-04-02T12:44:05;5.40;99.90
20057;DHT22;10189;49.546;7.906;2023-04-02T12:46:40;5.50;99.90
20057;DHT22;10189;49.546;7.906;2023-04-02T12:52:07;5.50;99.90
20057;DHT22;10189;49.546;7.906;2023-04-02T12:54:57;5.50;99.90
20057;DHT22;10189;49.546;7.906;2023-04-02T12:58:02;5.40;99.90
20057;DHT22;10189;49.546;7.906;2023-04-02T13:00:32;5.50;99.90
20057;DHT22;10189;49.546;7.906;2023-04-02T13:03:21;5.40;99.90
20057;DHT22;10189;49.546;7.906;2023-04-02T13:05:51;5.50;99.90
20057;DHT22;10189;49.546;7.906;2023-04-02T13:08:24;5.50;99.90
20057;DHT22;10189;49.546;7.906;2023-04-02T13:11:01;5.50;99.90
20057;DHT22;10189;49.546;7.906;2023-04-02T13:13:33;5.40;99.90
20057;DHT22;10189;49.546;7.906;2023-04-02T13:18:36;5.50;99.90
20057;DHT22;10189;49.546;7.906;2023-04-02T13:21:24;5.50;99.90
20057;DHT22;10189;49.546;7.906;2023-04-02T13:23:52;5.50;99.90
20057;DHT22;10189;49.546;7.906;2023-04-02T13:26:23;5.60;99.90
20057;DHT22;10189;49.546;7.906;2023-04-02T13:31:41;5.40;99.90
20057;DHT22;10189;49.546;7.906;2023-04-02T13:34:07;5.30;99.90
20057;DHT22;10189;49.546;7.906;2023-04-02T13:36:34;5.30;99.90
20057;DHT22;10189;49.546;7.906;2023-04-02T13:39:02;5.20;99.90
20057;DHT22;10189;49.546;7.906;2023-04-02T13:41:30;5.40;99.90
20057;DHT22;10189;49.546;7.906;2023-04-02T13:44:01;5.40;99.90
20057;DHT22;10189;49.546;7.906;2023-04-02T13:46:32;5.40;99.90
20057;DHT22;10189;49.546;7.906;2023-04-02T13:48:59;5.30;99.90
20057;DHT22;10189;49.546;7.906;2023-04-02T13:51:36;5.10;99.90
20057;DHT22;10189;49.546;7.906;2023-04-02T13:54:08;5.10;99.90
20057;DHT22;10189;49.546;7.906;2023-04-02T13:56:44;5.10;99.90
20057;DHT22;10189;49.546;7.906;2023-04-02T13:59:11;5.20;99.90
20057;DHT22;10189;49.546;7.906;2023-04-02T14:01:39;5.20;99.90
20057;DHT22;10189;49.546;7.906;2023-04-02T14:04:09;5.10;99.90
20057;DHT22;10189;49.546;7.906;2023-04-02T14:06:55;5.10;99.90
20057;DHT22;10189;49.546;7.906;2023-04-02T14:09:53;5.10;99.90
20057;DHT22;10189;49.546;7.906;2023-04-02T14:32:58;4.70;99.90
20057;DHT22;10189;49.546;7.906;2023-04-02T14:35:58;4.70;99.90
20057;DHT22;10189;49.546;7.906;2023-04-02T14:41:59;4.70;99.90
20057;DHT22;10189;49.546;7.906;2023-04-02T14:44:37;4.70;99.90
20057;DHT22;10189;49.546;7.906;2023-04-02T14:47:32;4.70;99.90
20057;DHT22;10189;49.546;7.906;2023-04-02T14:50:22;4.70;99.90
20057;DHT22;10189;49.546;7.906;2023-04-02T14:52:57;4.70;99.90
20057;DHT22;10189;49.546;7.906;2023-04-02T14:58:02;4.60;99.90
20057;DHT22;10189;49.546;7.906;2023-04-02T15:00:36;4.60;99.90
20057;DHT22;10189;49.546;7.906;2023-04-02T15:03:22;4.50;99.90
20057;DHT22;10189;49.546;7.906;2023-04-02T15:06:01;4.50;99.90
20057;DHT22;10189;49.546;7.906;2023-04-02T15:08:35;4.60;99.90
20057;DHT22;10189;49.546;7.906;2023-04-02T15:11:22;4.50;99.90
20057;DHT22;10189;49.546;7.906;2023-04-02T15:14:01;4.50;99.90
20057;DHT22;10189;49.546;7.906;2023-04-02T15:16:28;4.40;99.90
20057;DHT22;10189;49.546;7.906;2023-04-02T15:18:55;4.40;99.90
20057;DHT22;10189;49.546;7.906;2023-04-02T15:30:44;4.60;99.90
20057;DHT22;10189;49.546;7.906;2023-04-02T15:33:39;4.60;99.60
20057;DHT22;10189;49.546;7.906;2023-04-02T15:42:37;4.60;99.20
20057;DHT22;10189;49.546;7.906;2023-04-02T16:09:11;4.30;98.00
20057;DHT22;10189;49.546;7.906;2023-04-02T16:11:39;4.20;99.20
20057;DHT22;10189;49.546;7.906;2023-04-02T16:14:25;4.20;99.50
20057;DHT22;10189;49.546;7.906;2023-04-02T16:17:05;4.10;99.30
20057;DHT22;10189;49.546;7.906;2023-04-02T16:19:45;4.00;99.90
20057;DHT22;10189;49.546;7.906;2023-04-02T16:22:26;4.00;99.80
20057;DHT22;10189;49.546;7.906;2023-04-02T16:25:15;4.10;99.90
20057;DHT22;10189;49.546;7.906;2023-04-02T16:27:48;4.10;99.80
20057;DHT22;10189;49.546;7.906;2023-04-02T16:33:20;4.00;99.90
20057;DHT22;10189;49.546;7.906;2023-04-02T16:45:10;3.80;99.90
20057;DHT22;10189;49.546;7.906;2023-04-02T16:51:03;3.60;99.90
20057;DHT22;10189;49.546;7.906;2023-04-02T17:02:36;3.30;99.90
20057;DHT22;10189;49.546;7.906;2023-04-02T17:05:33;3.30;99.90
20057;DHT22;10189;49.546;7.906;2023-04-02T17:08:21;3.20;99.90
20057;DHT22;10189;49.546;7.906;2023-04-02T17:11:09;3.10;99.90
20057;DHT22;10189;49.546;7.906;2023-04-02T17:14:51;3.00;99.90
20057;DHT22;10189;49.546;7.906;2023-04-02T17:17:16;3.00;99.90
20057;DHT22;10189;49.546;7.906;2023-04-02T17:19:43;2.90;99.90
20057;DHT22;10189;49.546;7.906;2023-04-02T17:22:16;2.90;99.90
20057;DHT22;10189;49.546;7.906;2023-04-02T17:25:20;2.80;99.90
20057;DHT22;10189;49.546;7.906;2023-04-02T17:27:53;2.70;99.90
20057;DHT22;10189;49.546;7.906;2023-04-02T17:30:44;2.60;99.90
20057;DHT22;10189;49.546;7.906;2023-04-02T17:33:16;2.50;99.90
20057;DHT22;10189;49.546;7.906;2023-04-02T17:39:21;2.40;99.90
20057;DHT22;10189;49.546;7.906;2023-04-02T17:45:31;2.20;99.90
20057;DHT22;10189;49.546;7.906;2023-04-02T17:53:58;2.10;99.90
20057;DHT22;10189;49.546;7.906;2023-04-02T18:02:40;2.00;99.90
20057;DHT22;10189;49.546;7.906;2023-04-02T18:05:27;2.00;99.90
20057;DHT22;10189;49.546;7.906;2023-04-02T18:08:10;2.00;99.90
20057;DHT22;10189;49.546;7.906;2023-04-02T18:10:45;2.00;99.90
20057;DHT22;10189;49.546;7.906;2023-04-02T18:13:58;2.00;99.90
20057;DHT22;10189;49.546;7.906;2023-04-02T18:19:40;1.90;99.90
20057;DHT22;10189;49.546;7.906;2023-04-02T18:22:32;1.90;99.90
20057;DHT22;10189;49.546;7.906;2023-04-02T18:28:33;1.90;99.90
20057;DHT22;10189;49.546;7.906;2023-04-02T18:31:41;2.00;99.90
20057;DHT22;10189;49.546;7.906;2023-04-02T18:34:50;2.00;99.90
20057;DHT22;10189;49.546;7.906;2023-04-02T18:50:28;2.10;96.70
20057;DHT22;10189;49.546;7.906;2023-04-02T18:52:23;2.10;96.40
20057;DHT22;10189;49.546;7.906;2023-04-02T18:55:19;2.10;95.10
20057;DHT22;10189;49.546;7.906;2023-04-02T18:57:54;2.10;95.60
20057;DHT22;10189;49.546;7.906;2023-04-02T19:00:30;2.10;95.30
20057;DHT22;10189;49.546;7.906;2023-04-02T19:05:54;2.20;94.80
20057;DHT22;10189;49.546;7.906;2023-04-02T19:08:35;2.20;93.00
20057;DHT22;10189;49.546;7.906;2023-04-02T19:11:20;2.20;92.50
20057;DHT22;10189;49.546;7.906;2023-04-02T19:14:17;2.20;93.70
20057;DHT22;10189;49.546;7.906;2023-04-02T19:19:25;2.30;92.70
20057;DHT22;10189;49.546;7.906;2023-04-02T19:22:14;2.30;91.80
20057;DHT22;10189;49.546;7.906;2023-04-02T19:31:58;2.20;92.40
20057;DHT22;10189;49.546;7.906;2023-04-02T19:34:56;2.30;91.40
20057;DHT22;10189;49.546;7.906;2023-04-02T19:37:41;2.30;91.50
20057;DHT22;10189;49.546;7.906;2023-04-02T19:40:49;2.30;91.40
20057;DHT22;10189;49.546;7.906;2023-04-02T19:43:24;2.30;91.00
20057;DHT22;10189;49.546;7.906;2023-04-02T19:45:50;2.30;91.20
20057;DHT22;10189;49.546;7.906;2023-04-02T19:48:25;2.30;91.90
20057;DHT22;10189;49.546;7.906;2023-04-02T19:50:55;2.30;91.30
20057;DHT22;10189;49.546;7.906;2023-04-02T19:53:21;2.30;90.90
20057;DHT22;10189;49.546;7.906;2023-04-02T19:55:47;2.30;90.20
20057;DHT22;10189;49.546;7.906;2023-04-02T19:58:26;2.30;90.30
20057;DHT22;10189;49.546;7.906;2023-04-02T20:00:54;2.30;90.20
20057;DHT22;10189;49.546;7.906;2023-04-02T20:03:20;2.30;88.80
20057;DHT22;10189;49.546;7.906;2023-04-02T20:05:47;2.30;89.20
20057;DHT22;10189;49.546;7.906;2023-04-02T20:08:13;2.30;87.30
20057;DHT22;10189;49.546;7.906;2023-04-02T20:10:39;2.30;88.50
20057;DHT22;10189;49.546;7.906;2023-04-02T20:13:06;2.20;86.50
20057;DHT22;10189;49.546;7.906;2023-04-02T20:15:32;2.20;87.10
20057;DHT22;10189;49.546;7.906;2023-04-02T20:17:58;2.20;86.90
20057;DHT22;10189;49.546;7.906;2023-04-02T20:20:24;2.10;87.70
20057;DHT22;10189;49.546;7.906;2023-04-02T20:22:50;2.20;85.80
20057;DHT22;10189;49.546;7.906;2023-04-02T20:25:16;2.10;86.10
20057;DHT22;10189;49.546;7.906;2023-04-02T20:27:42;2.10;86.20
20057;DHT22;10189;49.546;7.906;2023-04-02T20:30:08;2.20;86.10
20057;DHT22;10189;49.546;7.906;2023-04-02T20:32:34;2.10;86.20
20057;DHT22;10189;49.546;7.906;2023-04-02T20:35:01;2.20;86.00
20057;DHT22;10189;49.546;7.906;2023-04-02T20:37:27;2.20;85.50
20057;DHT22;10189;49.546;7.906;2023-04-02T20:39:54;2.20;86.30
20057;DHT22;10189;49.546;7.906;2023-04-02T20:42:23;2.20;85.40
20057;DHT22;10189;49.546;7.906;2023-04-02T20:44:50;2.20;85.40
20057;DHT22;10189;49.546;7.906;2023-04-02T20:47:16;2.20;85.70
20057;DHT22;10189;49.546;7.906;2023-04-02T20:49:42;2.20;85.40
20057;DHT22;10189;49.546;7.906;2023-04-02T20:52:08;2.20;85.40
20057;DHT22;10189;49.546;7.906;2023-04-02T20:54:35;2.20;84.90
20057;DHT22;10189;49.546;7.906;2023-04-02T20:57:01;2.20;86.10
20057;DHT22;10189;49.546;7.906;2023-04-02T20:59:28;2.30;84.70
20057;DHT22;10189;49.546;7.906;2023-04-02T21:01:54;2.30;85.00
20057;DHT22;10189;49.546;7.906;2023-04-02T21:04:20;2.20;85.50
20057;DHT22;10189;49.546;7.906;2023-04-02T21:06:46;2.20;85.50
20057;DHT22;10189;49.546;7.906;2023-04-02T21:09:16;2.20;86.10
20057;DHT22;10189;49.546;7.906;2023-04-02T21:11:43;2.20;84.70
20057;DHT22;10189;49.546;7.906;2023-04-02T21:14:09;2.20;85.00
20057;DHT22;10189;49.546;7.906;2023-04-02T21:16:35;2.20;84.90
20057;DHT22;10189;49.546;7.906;2023-04-02T21:19:04;2.20;84.80
20057;DHT22;10189;49.546;7.906;2023-04-02T21:21:32;2.20;84.70
20057;DHT22;10189;49.546;7.906;2023-04-02T21:24:01;2.20;84.00
20057;DHT22;10189;49.546;7.906;2023-04-02T21:26:31;2.20;83.80
20057;DHT22;10189;49.546;7.906;2023-04-02T21:28:59;2.20;84.10
20057;DHT22;10189;49.546;7.906;2023-04-02T21:31:27;2.20;84.30
20057;DHT22;10189;49.546;7.906;2023-04-02T21:33:57;2.20;84.40